sensor_id;sensor_type;location;lat;lon;timestamp;temperature;humidity
21502;DHT22;27639;48.674;9.242;2024-01-16T00:00:05;2.20;54.10
21502;DHT22;27639;48.674;9.242;2024-01-16T00:02:31;2.20;53.90
21502;DHT22;27639;48.674;9.242;2024-01-16T00:04:57;2.20;53.90
21502;DHT22;27639;48.674;9.242;2024-01-16T00:07:23;2.20;53.90
21502;DHT22;27639;48.674;9.242;2024-01-16T00:09:48;2.30;54.00
21502;DHT22;27639;48.674;9.242;2024-01-16T00:12:17;2.30;53.90
21502;DHT22;27639;48.674;9.242;2024-01-16T00:14:43;2.30;53.90
21502;DHT22;27639;48.674;9.242;2024-01-16T00:17:09;2.30;53.90
21502;DHT22;27639;48.674;9.242;2024-01-16T00:19:35;2.20;53.90
21502;DHT22;27639;48.674;9.242;2024-01-16T00:22:00;2.20;54.00
21502;DHT22;27639;48.674;9.242;2024-01-16T00:24:28;2.20;54.00
21502;DHT22;27639;48.674;9.242;2024-01-16T00:26:53;2.30;54.00
21502;DHT22;27639;48.674;9.242;2024-01-16T00:29:19;2.30;53.90
21502;DHT22;27639;48.674;9.242;2024-01-16T00:31:45;2.30;53.90
21502;DHT22;27639;48.674;9.242;2024-01-16T00:34:11;2.30;53.90
21502;DHT22;27639;48.674;9.242;2024-01-16T00:36:36;2.30;53.80
21502;DHT22;27639;48.674;9.242;2024-01-16T00:39:02;2.20;53.80
21502;DHT22;27639;48.674;9.242;2024-01-16T00:41:28;2.20;53.70
21502;DHT22;27639;48.674;9.242;2024-01-16T00:43:54;2.20;53.60
21502;DHT22;27639;48.674;9.242;2024-01-16T00:46:20;2.20;53.60
21502;DHT22;27639;48.674;9.242;2024-01-16T00:48:46;2.10;53.60
21502;DHT22;27639;48.674;9.242;2024-01-16T00:51:11;2.20;53.60
21502;DHT22;27639;48.674;9.242;2024-01-16T00:53:41;2.10;53.50
21502;DHT22;27639;48.674;9.242;2024-01-16T00:56:06;2.10;53.50
21502;DHT22;27639;48.674;9.242;2024-01-16T00:58:32;2.10;53.50
21502;DHT22;27639;48.674;9.242;2024-01-16T01:00:57;2.10;53.40
21502;DHT22;27639;48.674;9.242;2024-01-16T01:03:23;2.20;53.40
21502;DHT22;27639;48.674;9.242;2024-01-16T01:05:48;2.10;53.30
21502;DHT22;27639;48.674;9.242;2024-01-16T01:08:14;2.10;53.40
21502;DHT22;27639;48.674;9.242;2024-01-16T01:10:40;2.00;53.60
21502;DHT22;27639;48.674;9.242;2024-01-16T01:13:05;2.00;53.70
21502;DHT22;27639;48.674;9.242;2024-01-16T01:15:31;1.90;54.60
21502;DHT22;27639;48.674;9.242;2024-01-16T01:17:56;1.90;54.10
21502;DHT22;27639;48.674;9.242;2024-01-16T01:20:22;1.90;54.80
21502;DHT22;27639;48.674;9.242;2024-01-16T01:22:47;1.90;54.20
21502;DHT22;27639;48.674;9.242;2024-01-16T01:25:13;1.90;54.20
21502;DHT22;27639;48.674;9.242;2024-01-16T01:27:39;1.80;54.30
21502;DHT22;27639;48.674;9.242;2024-01-16T01:30:08;1.80;54.40
21502;DHT22;27639;48.674;9.242;2024-01-16T01:32:37;1.80;54.40
21502;DHT22;27639;48.674;9.242;2024-01-16T01:35:04;1.80;54.50
21502;DHT22;27639;48.674;9.242;2024-01-16T01:37:29;1.90;54.30
21502;DHT22;27639;48.674;9.242;2024-01-16T01:39:55;1.90;54.10
21502;DHT22;27639;48.674;9.242;2024-01-16T01:42:20;2.00;54.00
21502;DHT22;27639;48.674;9.242;2024-01-16T01:44:47;2.00;53.90
21502;DHT22;27639;48.674;9.242;2024-01-16T01:47:13;2.10;53.90
21502;DHT22;27639;48.674;9.242;2024-01-16T01:49:39;2.20;54.00
21502;DHT22;27639;48.674;9.242;2024-01-16T01:52:05;2.20;53.90
21502;DHT22;27639;48.674;9.242;2024-01-16T01:54:32;2.20;53.90
21502;DHT22;27639;48.674;9.242;2024-01-16T01:57:00;2.20;53.90
21502;DHT22;27639;48.674;9.242;2024-01-16T01:59:26;2.30;53.90
21502;DHT22;27639;48.674;9.242;2024-01-16T02:01:53;2.30;53.80
21502;DHT22;27639;48.674;9.242;2024-01-16T02:04:20;2.30;53.70
21502;DHT22;27639;48.674;9.242;2024-01-16T02:06:47;2.40;53.60
21502;DHT22;27639;48.674;9.242;2024-01-16T02:09:12;2.30;53.60
21502;DHT22;27639;48.674;9.242;2024-01-16T02:11:42;2.40;53.60
21502;DHT22;27639;48.674;9.242;2024-01-16T02:14:08;2.30;53.50
21502;DHT22;27639;48.674;9.242;2024-01-16T02:16:39;2.30;53.40
21502;DHT22;27639;48.674;9.242;2024-01-16T02:19:06;2.20;53.40
21502;DHT22;27639;48.674;9.242;2024-01-16T02:21:46;2.20;53.40
21502;DHT22;27639;48.674;9.242;2024-01-16T02:24:15;2.10;53.40
21502;DHT22;27639;48.674;9.242;2024-01-16T02:26:42;2.10;53.60
21502;DHT22;27639;48.674;9.242;2024-01-16T02:29:08;2.10;53.60
21502;DHT22;27639;48.674;9.242;2024-01-16T02:31:34;2.10;53.60
21502;DHT22;27639;48.674;9.242;2024-01-16T02:34:00;2.00;53.40
21502;DHT22;27639;48.674;9.242;2024-01-16T02:36:26;2.00;53.60
21502;DHT22;27639;48.674;9.242;2024-01-16T02:38:52;1.90;53.50
21502;DHT22;27639;48.674;9.242;2024-01-16T02:41:18;1.90;53.60
21502;DHT22;27639;48.674;9.242;2024-01-16T02:43:44;1.90;53.50
21502;DHT22;27639;48.674;9.242;2024-01-16T02:46:10;2.00;53.60
21502;DHT22;27639;48.674;9.242;2024-01-16T02:48:36;2.00;53.40
21502;DHT22;27639;48.674;9.242;2024-01-16T02:51:02;2.00;53.30
21502;DHT22;27639;48.674;9.242;2024-01-16T02:53:29;1.90;53.40
21502;DHT22;27639;48.674;9.242;2024-01-16T02:55:55;1.90;53.40
21502;DHT22;27639;48.674;9.242;2024-01-16T02:58:21;1.80;53.30
21502;DHT22;27639;48.674;9.242;2024-01-16T03:00:46;1.70;53.40
21502;DHT22;27639;48.674;9.242;2024-01-16T03:03:12;1.70;53.50
21502;DHT22;27639;48.674;9.242;2024-01-16T03:05:38;1.80;53.50
21502;DHT22;27639;48.674;9.242;2024-01-16T03:08:04;1.80;53.50
21502;DHT22;27639;48.674;9.242;2024-01-16T03:10:30;1.80;53.50
21502;DHT22;27639;48.674;9.242;2024-01-16T03:12:56;1.90;53.50
21502;DHT22;27639;48.674;9.242;2024-01-16T03:15:22;1.80;53.30
21502;DHT22;27639;48.674;9.242;2024-01-16T03:17:48;1.90;53.30
21502;DHT22;27639;48.674;9.242;2024-01-16T03:20:15;1.90;53.10
21502;DHT22;27639;48.674;9.242;2024-01-16T03:22:40;1.90;53.00
21502;DHT22;27639;48.674;9.242;2024-01-16T03:25:08;1.90;53.00
21502;DHT22;27639;48.674;9.242;2024-01-16T03:27:33;1.90;52.90
21502;DHT22;27639;48.674;9.242;2024-01-16T03:30:01;1.90;52.90
21502;DHT22;27639;48.674;9.242;2024-01-16T03:32:26;1.90;52.80
21502;DHT22;27639;48.674;9.242;2024-01-16T03:34:52;1.90;52.70
21502;DHT22;27639;48.674;9.242;2024-01-16T03:37:17;1.90;52.70
21502;DHT22;27639;48.674;9.242;2024-01-16T03:39:43;1.90;52.70
21502;DHT22;27639;48.674;9.242;2024-01-16T03:42:10;1.90;52.60
21502;DHT22;27639;48.674;9.242;2024-01-16T03:44:40;1.80;52.50
21502;DHT22;27639;48.674;9.242;2024-01-16T03:47:06;1.80;52.40
21502;DHT22;27639;48.674;9.242;2024-01-16T03:49:32;1.80;52.50
21502;DHT22;27639;48.674;9.242;2024-01-16T03:51:58;1.70;52.40
21502;DHT22;27639;48.674;9.242;2024-01-16T03:54:24;1.70;52.40
21502;DHT22;27639;48.674;9.242;2024-01-16T03:56:49;1.70;52.40
21502;DHT22;27639;48.674;9.242;2024-01-16T03:59:15;1.70;52.40
21502;DHT22;27639;48.674;9.242;2024-01-16T04:01:41;1.60;52.40
21502;DHT22;27639;48.674;9.242;2024-01-16T04:04:08;1.60;52.40
21502;DHT22;27639;48.674;9.242;2024-01-16T04:06:34;1.60;52.40
21502;DHT22;27639;48.674;9.242;2024-01-16T04:08:59;1.60;52.40
21502;DHT22;27639;48.674;9.242;2024-01-16T04:11:25;1.50;52.40
21502;DHT22;27639;48.674;9.242;2024-01-16T04:13:50;1.40;52.40
21502;DHT22;27639;48.674;9.242;2024-01-16T04:16:16;1.30;52.40
21502;DHT22;27639;48.674;9.242;2024-01-16T04:18:42;1.30;52.50
21502;DHT22;27639;48.674;9.242;2024-01-16T04:21:08;1.20;52.50
21502;DHT22;27639;48.674;9.242;2024-01-16T04:23:34;1.20;52.70
21502;DHT22;27639;48.674;9.242;2024-01-16T04:26:00;1.20;52.70
21502;DHT22;27639;48.674;9.242;2024-01-16T04:28:25;1.10;52.80
21502;DHT22;27639;48.674;9.242;2024-01-16T04:30:51;1.10;52.80
21502;DHT22;27639;48.674;9.242;2024-01-16T04:33:17;1.10;52.80
21502;DHT22;27639;48.674;9.242;2024-01-16T04:35:43;1.10;52.80
21502;DHT22;27639;48.674;9.242;2024-01-16T04:38:08;1.10;52.70
21502;DHT22;27639;48.674;9.242;2024-01-16T04:40:34;1.10;52.80
21502;DHT22;27639;48.674;9.242;2024-01-16T04:43:00;1.00;52.80
21502;DHT22;27639;48.674;9.242;2024-01-16T04:45:25;1.10;52.80
21502;DHT22;27639;48.674;9.242;2024-01-16T04:47:51;1.10;52.80
21502;DHT22;27639;48.674;9.242;2024-01-16T04:50:17;1.00;53.00
21502;DHT22;27639;48.674;9.242;2024-01-16T04:52:43;1.00;53.50
21502;DHT22;27639;48.674;9.242;2024-01-16T04:55:09;1.00;52.80
21502;DHT22;27639;48.674;9.242;2024-01-16T04:57:34;1.00;52.70
21502;DHT22;27639;48.674;9.242;2024-01-16T05:00:00;1.10;52.80
21502;DHT22;27639;48.674;9.242;2024-01-16T05:02:25;1.00;52.60
21502;DHT22;27639;48.674;9.242;2024-01-16T05:04:51;1.10;52.70
21502;DHT22;27639;48.674;9.242;2024-01-16T05:07:22;1.10;52.60
21502;DHT22;27639;48.674;9.242;2024-01-16T05:09:48;1.10;52.50
21502;DHT22;27639;48.674;9.242;2024-01-16T05:12:14;1.10;52.50
21502;DHT22;27639;48.674;9.242;2024-01-16T05:14:40;1.10;52.40
21502;DHT22;27639;48.674;9.242;2024-01-16T05:17:05;1.10;52.30
21502;DHT22;27639;48.674;9.242;2024-01-16T05:19:31;1.10;52.30
21502;DHT22;27639;48.674;9.242;2024-01-16T05:21:57;1.10;52.30
21502;DHT22;27639;48.674;9.242;2024-01-16T05:24:23;1.10;52.30
21502;DHT22;27639;48.674;9.242;2024-01-16T05:26:48;1.10;52.20
21502;DHT22;27639;48.674;9.242;2024-01-16T05:29:14;1.10;52.30
21502;DHT22;27639;48.674;9.242;2024-01-16T05:31:40;1.10;52.30
21502;DHT22;27639;48.674;9.242;2024-01-16T05:34:06;1.10;52.30
21502;DHT22;27639;48.674;9.242;2024-01-16T05:36:32;1.00;52.20
21502;DHT22;27639;48.674;9.242;2024-01-16T05:38:57;1.00;52.20
21502;DHT22;27639;48.674;9.242;2024-01-16T05:41:23;1.00;52.30
21502;DHT22;27639;48.674;9.242;2024-01-16T05:43:48;1.00;52.30
21502;DHT22;27639;48.674;9.242;2024-01-16T05:46:14;0.90;52.80
21502;DHT22;27639;48.674;9.242;2024-01-16T05:48:40;0.90;52.20
21502;DHT22;27639;48.674;9.242;2024-01-16T05:51:05;0.90;52.20
21502;DHT22;27639;48.674;9.242;2024-01-16T05:53:31;0.90;52.10
21502;DHT22;27639;48.674;9.242;2024-01-16T05:55:56;0.90;52.10
21502;DHT22;27639;48.674;9.242;2024-01-16T05:58:22;0.90;52.10
21502;DHT22;27639;48.674;9.242;2024-01-16T06:00:48;1.00;52.20
21502;DHT22;27639;48.674;9.242;2024-01-16T06:03:13;1.00;52.20
21502;DHT22;27639;48.674;9.242;2024-01-16T06:05:39;1.00;52.00
21502;DHT22;27639;48.674;9.242;2024-01-16T06:08:04;1.00;52.00
21502;DHT22;27639;48.674;9.242;2024-01-16T06:10:30;1.00;51.90
21502;DHT22;27639;48.674;9.242;2024-01-16T06:12:56;1.00;51.80
21502;DHT22;27639;48.674;9.242;2024-01-16T06:15:21;1.00;51.80
21502;DHT22;27639;48.674;9.242;2024-01-16T06:17:47;0.90;51.80
21502;DHT22;27639;48.674;9.242;2024-01-16T06:20:12;0.80;51.90
21502;DHT22;27639;48.674;9.242;2024-01-16T06:22:38;0.80;52.10
21502;DHT22;27639;48.674;9.242;2024-01-16T06:25:04;0.70;52.30
21502;DHT22;27639;48.674;9.242;2024-01-16T06:27:29;0.80;52.40
21502;DHT22;27639;48.674;9.242;2024-01-16T06:29:55;0.80;52.40
21502;DHT22;27639;48.674;9.242;2024-01-16T06:32:21;0.80;52.40
21502;DHT22;27639;48.674;9.242;2024-01-16T06:34:46;0.80;52.50
21502;DHT22;27639;48.674;9.242;2024-01-16T06:37:12;0.80;52.40
21502;DHT22;27639;48.674;9.242;2024-01-16T06:39:37;0.80;52.50
21502;DHT22;27639;48.674;9.242;2024-01-16T06:42:05;0.80;52.40
21502;DHT22;27639;48.674;9.242;2024-01-16T06:44:30;0.80;52.30
21502;DHT22;27639;48.674;9.242;2024-01-16T06:46:56;0.70;52.30
21502;DHT22;27639;48.674;9.242;2024-01-16T06:49:22;0.80;52.40
21502;DHT22;27639;48.674;9.242;2024-01-16T06:51:47;0.80;52.30
21502;DHT22;27639;48.674;9.242;2024-01-16T06:54:13;0.90;52.30
21502;DHT22;27639;48.674;9.242;2024-01-16T06:56:38;0.90;52.20
21502;DHT22;27639;48.674;9.242;2024-01-16T06:59:04;0.90;52.20
21502;DHT22;27639;48.674;9.242;2024-01-16T07:01:30;0.90;52.20
21502;DHT22;27639;48.674;9.242;2024-01-16T07:03:56;0.90;52.10
21502;DHT22;27639;48.674;9.242;2024-01-16T07:06:21;0.90;52.10
21502;DHT22;27639;48.674;9.242;2024-01-16T07:08:47;0.90;52.10
21502;DHT22;27639;48.674;9.242;2024-01-16T07:11:12;0.90;52.10
21502;DHT22;27639;48.674;9.242;2024-01-16T07:13:40;1.00;52.10
21502;DHT22;27639;48.674;9.242;2024-01-16T07:16:10;1.00;52.10
21502;DHT22;27639;48.674;9.242;2024-01-16T07:18:37;1.00;52.10
21502;DHT22;27639;48.674;9.242;2024-01-16T07:21:02;1.00;51.90
21502;DHT22;27639;48.674;9.242;2024-01-16T07:23:29;1.00;52.60
21502;DHT22;27639;48.674;9.242;2024-01-16T07:25:55;1.00;51.90
21502;DHT22;27639;48.674;9.242;2024-01-16T07:28:20;1.10;51.90
21502;DHT22;27639;48.674;9.242;2024-01-16T07:30:47;1.10;51.80
21502;DHT22;27639;48.674;9.242;2024-01-16T07:33:13;1.20;51.60
21502;DHT22;27639;48.674;9.242;2024-01-16T07:35:38;1.10;51.60
21502;DHT22;27639;48.674;9.242;2024-01-16T07:38:06;1.10;51.60
21502;DHT22;27639;48.674;9.242;2024-01-16T07:40:32;1.20;51.60
21502;DHT22;27639;48.674;9.242;2024-01-16T07:42:57;1.20;51.60
21502;DHT22;27639;48.674;9.242;2024-01-16T07:45:24;1.20;51.60
21502;DHT22;27639;48.674;9.242;2024-01-16T07:47:49;1.30;51.70
21502;DHT22;27639;48.674;9.242;2024-01-16T07:50:15;1.30;51.70
21502;DHT22;27639;48.674;9.242;2024-01-16T07:52:41;1.30;51.70
21502;DHT22;27639;48.674;9.242;2024-01-16T07:55:06;1.30;51.70
21502;DHT22;27639;48.674;9.242;2024-01-16T07:57:32;1.40;51.70
21502;DHT22;27639;48.674;9.242;2024-01-16T07:59:58;1.40;51.60
21502;DHT22;27639;48.674;9.242;2024-01-16T08:02:32;1.40;51.60
21502;DHT22;27639;48.674;9.242;2024-01-16T08:04:57;1.40;51.40
21502;DHT22;27639;48.674;9.242;2024-01-16T08:07:23;1.50;51.10
21502;DHT22;27639;48.674;9.242;2024-01-16T08:09:49;1.50;50.90
21502;DHT22;27639;48.674;9.242;2024-01-16T08:12:14;1.50;50.80
21502;DHT22;27639;48.674;9.242;2024-01-16T08:14:40;1.50;50.60
21502;DHT22;27639;48.674;9.242;2024-01-16T08:17:05;1.60;50.70
21502;DHT22;27639;48.674;9.242;2024-01-16T08:19:32;1.60;50.50
21502;DHT22;27639;48.674;9.242;2024-01-16T08:21:58;1.60;50.50
21502;DHT22;27639;48.674;9.242;2024-01-16T08:24:23;1.60;51.30
21502;DHT22;27639;48.674;9.242;2024-01-16T08:26:49;1.60;50.50
21502;DHT22;27639;48.674;9.242;2024-01-16T08:29:15;1.60;50.40
21502;DHT22;27639;48.674;9.242;2024-01-16T08:31:41;1.60;50.30
21502;DHT22;27639;48.674;9.242;2024-01-16T08:34:06;1.60;50.60
21502;DHT22;27639;48.674;9.242;2024-01-16T08:36:32;1.60;50.70
21502;DHT22;27639;48.674;9.242;2024-01-16T08:38:57;1.70;50.90
21502;DHT22;27639;48.674;9.242;2024-01-16T08:41:23;1.80;51.50
21502;DHT22;27639;48.674;9.242;2024-01-16T08:43:49;1.80;50.80
21502;DHT22;27639;48.674;9.242;2024-01-16T08:46:14;1.90;50.60
21502;DHT22;27639;48.674;9.242;2024-01-16T08:48:40;2.00;50.30
21502;DHT22;27639;48.674;9.242;2024-01-16T08:51:08;2.00;50.10
21502;DHT22;27639;48.674;9.242;2024-01-16T08:53:37;2.10;49.90
21502;DHT22;27639;48.674;9.242;2024-01-16T08:56:03;2.10;50.20
21502;DHT22;27639;48.674;9.242;2024-01-16T08:58:29;2.10;50.30
21502;DHT22;27639;48.674;9.242;2024-01-16T09:00:55;2.20;50.30
21502;DHT22;27639;48.674;9.242;2024-01-16T09:03:21;2.30;50.20
21502;DHT22;27639;48.674;9.242;2024-01-16T09:05:46;2.30;50.10
21502;DHT22;27639;48.674;9.242;2024-01-16T09:08:12;2.40;50.10
21502;DHT22;27639;48.674;9.242;2024-01-16T09:10:37;2.40;50.10
21502;DHT22;27639;48.674;9.242;2024-01-16T09:13:03;2.50;50.00
21502;DHT22;27639;48.674;9.242;2024-01-16T09:15:28;2.50;49.70
21502;DHT22;27639;48.674;9.242;2024-01-16T09:17:54;2.50;49.90
21502;DHT22;27639;48.674;9.242;2024-01-16T09:20:20;2.50;49.80
21502;DHT22;27639;48.674;9.242;2024-01-16T09:22:45;2.50;49.60
21502;DHT22;27639;48.674;9.242;2024-01-16T09:25:11;2.50;49.30
21502;DHT22;27639;48.674;9.242;2024-01-16T09:27:36;2.60;49.10
21502;DHT22;27639;48.674;9.242;2024-01-16T09:30:03;2.60;49.10
21502;DHT22;27639;48.674;9.242;2024-01-16T09:32:29;2.70;49.50
21502;DHT22;27639;48.674;9.242;2024-01-16T09:34:55;2.80;49.80
21502;DHT22;27639;48.674;9.242;2024-01-16T09:37:20;2.90;49.50
21502;DHT22;27639;48.674;9.242;2024-01-16T09:39:46;2.90;49.30
21502;DHT22;27639;48.674;9.242;2024-01-16T09:42:11;3.00;49.40
21502;DHT22;27639;48.674;9.242;2024-01-16T09:44:37;3.00;49.40
21502;DHT22;27639;48.674;9.242;2024-01-16T09:47:03;3.10;49.50
21502;DHT22;27639;48.674;9.242;2024-01-16T09:49:30;3.20;49.20
21502;DHT22;27639;48.674;9.242;2024-01-16T09:51:56;3.30;49.00
21502;DHT22;27639;48.674;9.242;2024-01-16T09:54:24;3.40;48.40
21502;DHT22;27639;48.674;9.242;2024-01-16T09:56:51;3.40;48.30
21502;DHT22;27639;48.674;9.242;2024-01-16T09:59:19;3.30;48.50
21502;DHT22;27639;48.674;9.242;2024-01-16T10:01:46;3.40;48.60
21502;DHT22;27639;48.674;9.242;2024-01-16T10:04:13;3.50;48.60
21502;DHT22;27639;48.674;9.242;2024-01-16T10:06:39;3.50;48.40
21502;DHT22;27639;48.674;9.242;2024-01-16T10:09:05;3.50;48.30
21502;DHT22;27639;48.674;9.242;2024-01-16T10:11:33;3.50;48.10
21502;DHT22;27639;48.674;9.242;2024-01-16T10:13:59;3.40;47.70
21502;DHT22;27639;48.674;9.242;2024-01-16T10:19:23;3.30;47.50
21502;DHT22;27639;48.674;9.242;2024-01-16T10:21:50;3.30;48.20
21502;DHT22;27639;48.674;9.242;2024-01-16T10:24:16;3.50;48.30
21502;DHT22;27639;48.674;9.242;2024-01-16T10:26:41;3.60;47.80
21502;DHT22;27639;48.674;9.242;2024-01-16T10:29:07;3.70;48.00
21502;DHT22;27639;48.674;9.242;2024-01-16T10:31:34;3.60;47.50
21502;DHT22;27639;48.674;9.242;2024-01-16T10:34:00;3.70;47.30
21502;DHT22;27639;48.674;9.242;2024-01-16T10:36:25;3.80;47.20
21502;DHT22;27639;48.674;9.242;2024-01-16T10:38:51;3.90;47.30
21502;DHT22;27639;48.674;9.242;2024-01-16T10:41:23;3.90;47.00
21502;DHT22;27639;48.674;9.242;2024-01-16T10:44:05;3.90;47.10
21502;DHT22;27639;48.674;9.242;2024-01-16T10:46:35;3.90;46.40
21502;DHT22;27639;48.674;9.242;2024-01-16T10:49:02;4.00;47.00
21502;DHT22;27639;48.674;9.242;2024-01-16T10:51:29;4.00;47.00
21502;DHT22;27639;48.674;9.242;2024-01-16T10:54:03;4.10;46.60
21502;DHT22;27639;48.674;9.242;2024-01-16T10:56:34;4.10;46.60
21502;DHT22;27639;48.674;9.242;2024-01-16T10:59:16;4.20;46.60
21502;DHT22;27639;48.674;9.242;2024-01-16T11:01:46;4.30;46.70
21502;DHT22;27639;48.674;9.242;2024-01-16T11:04:13;4.40;46.50
21502;DHT22;27639;48.674;9.242;2024-01-16T11:06:40;4.40;46.10
21502;DHT22;27639;48.674;9.242;2024-01-16T11:09:07;4.50;45.80
21502;DHT22;27639;48.674;9.242;2024-01-16T11:11:34;4.50;45.60
21502;DHT22;27639;48.674;9.242;2024-01-16T11:14:02;4.50;45.40
21502;DHT22;27639;48.674;9.242;2024-01-16T11:16:29;4.40;45.40
21502;DHT22;27639;48.674;9.242;2024-01-16T11:18:57;4.40;45.30
21502;DHT22;27639;48.674;9.242;2024-01-16T11:21:23;4.40;45.30
21502;DHT22;27639;48.674;9.242;2024-01-16T11:23:49;4.30;45.30
21502;DHT22;27639;48.674;9.242;2024-01-16T11:26:28;4.30;45.40
21502;DHT22;27639;48.674;9.242;2024-01-16T11:28:56;4.30;45.50
21502;DHT22;27639;48.674;9.242;2024-01-16T11:31:29;4.20;45.50
21502;DHT22;27639;48.674;9.242;2024-01-16T11:33:55;4.30;45.70
21502;DHT22;27639;48.674;9.242;2024-01-16T11:36:43;4.30;45.90
21502;DHT22;27639;48.674;9.242;2024-01-16T11:39:21;4.40;46.00
21502;DHT22;27639;48.674;9.242;2024-01-16T11:41:54;4.50;46.20
21502;DHT22;27639;48.674;9.242;2024-01-16T11:44:48;4.60;46.10
21502;DHT22;27639;48.674;9.242;2024-01-16T11:47:21;4.80;45.80
21502;DHT22;27639;48.674;9.242;2024-01-16T11:49:48;4.80;45.50
21502;DHT22;27639;48.674;9.242;2024-01-16T11:52:14;4.90;45.30
21502;DHT22;27639;48.674;9.242;2024-01-16T11:54:41;5.00;45.40
21502;DHT22;27639;48.674;9.242;2024-01-16T12:00:04;5.10;45.20
21502;DHT22;27639;48.674;9.242;2024-01-16T12:05:05;5.10;45.40
21502;DHT22;27639;48.674;9.242;2024-01-16T12:07:44;5.20;45.00
21502;DHT22;27639;48.674;9.242;2024-01-16T12:10:10;5.30;45.00
21502;DHT22;27639;48.674;9.242;2024-01-16T12:12:36;5.40;44.70
21502;DHT22;27639;48.674;9.242;2024-01-16T12:15:01;5.50;44.60
21502;DHT22;27639;48.674;9.242;2024-01-16T12:17:27;5.50;44.00
21502;DHT22;27639;48.674;9.242;2024-01-16T12:19:52;5.50;44.00
21502;DHT22;27639;48.674;9.242;2024-01-16T12:22:18;5.50;43.90
21502;DHT22;27639;48.674;9.242;2024-01-16T12:24:46;5.50;44.00
21502;DHT22;27639;48.674;9.242;2024-01-16T12:27:13;5.40;44.20
21502;DHT22;27639;48.674;9.242;2024-01-16T12:29:38;5.50;44.30
21502;DHT22;27639;48.674;9.242;2024-01-16T12:32:11;5.60;44.20
21502;DHT22;27639;48.674;9.242;2024-01-16T12:34:47;5.70;44.10
21502;DHT22;27639;48.674;9.242;2024-01-16T12:37:13;5.80;44.00
21502;DHT22;27639;48.674;9.242;2024-01-16T12:39:40;5.80;43.80
21502;DHT22;27639;48.674;9.242;2024-01-16T12:42:08;5.80;43.60
21502;DHT22;27639;48.674;9.242;2024-01-16T12:44:35;5.90;43.50
21502;DHT22;27639;48.674;9.242;2024-01-16T12:47:01;6.00;43.30
21502;DHT22;27639;48.674;9.242;2024-01-16T12:49:27;5.90;43.00
21502;DHT22;27639;48.674;9.242;2024-01-16T12:52:22;5.90;43.20
21502;DHT22;27639;48.674;9.242;2024-01-16T12:55:00;5.90;43.20
21502;DHT22;27639;48.674;9.242;2024-01-16T12:57:26;5.90;43.00
21502;DHT22;27639;48.674;9.242;2024-01-16T12:59:52;5.80;43.00
21502;DHT22;27639;48.674;9.242;2024-01-16T13:02:22;5.80;43.00
21502;DHT22;27639;48.674;9.242;2024-01-16T13:04:55;5.70;42.90
21502;DHT22;27639;48.674;9.242;2024-01-16T13:07:22;5.80;43.00
21502;DHT22;27639;48.674;9.242;2024-01-16T13:09:47;5.80;43.00
21502;DHT22;27639;48.674;9.242;2024-01-16T13:12:19;5.80;42.90
21502;DHT22;27639;48.674;9.242;2024-01-16T13:14:45;5.80;42.80
21502;DHT22;27639;48.674;9.242;2024-01-16T13:17:10;5.70;42.90
21502;DHT22;27639;48.674;9.242;2024-01-16T13:19:36;5.60;42.80
21502;DHT22;27639;48.674;9.242;2024-01-16T13:22:02;5.60;42.80
21502;DHT22;27639;48.674;9.242;2024-01-16T13:24:28;5.60;42.60
21502;DHT22;27639;48.674;9.242;2024-01-16T13:26:54;5.50;42.70
21502;DHT22;27639;48.674;9.242;2024-01-16T13:29:19;5.60;42.80
21502;DHT22;27639;48.674;9.242;2024-01-16T13:31:45;5.60;42.60
21502;DHT22;27639;48.674;9.242;2024-01-16T13:34:10;5.60;42.20
21502;DHT22;27639;48.674;9.242;2024-01-16T13:36:36;5.50;42.30
21502;DHT22;27639;48.674;9.242;2024-01-16T13:39:02;5.50;42.20
21502;DHT22;27639;48.674;9.242;2024-01-16T13:41:28;5.50;42.10
21502;DHT22;27639;48.674;9.242;2024-01-16T13:43:54;5.50;42.10
21502;DHT22;27639;48.674;9.242;2024-01-16T13:46:20;5.60;42.10
21502;DHT22;27639;48.674;9.242;2024-01-16T13:48:45;5.60;41.90
21502;DHT22;27639;48.674;9.242;2024-01-16T13:51:11;5.60;41.90
21502;DHT22;27639;48.674;9.242;2024-01-16T13:53:36;5.60;41.80
21502;DHT22;27639;48.674;9.242;2024-01-16T13:56:02;5.70;41.60
21502;DHT22;27639;48.674;9.242;2024-01-16T13:58:28;5.70;41.40
21502;DHT22;27639;48.674;9.242;2024-01-16T14:00:53;5.70;41.30
21502;DHT22;27639;48.674;9.242;2024-01-16T14:03:19;5.70;41.20
21502;DHT22;27639;48.674;9.242;2024-01-16T14:05:46;5.70;41.20
21502;DHT22;27639;48.674;9.242;2024-01-16T14:08:11;5.70;41.20
21502;DHT22;27639;48.674;9.242;2024-01-16T14:10:38;5.70;41.10
21502;DHT22;27639;48.674;9.242;2024-01-16T14:13:04;5.70;41.00
21502;DHT22;27639;48.674;9.242;2024-01-16T14:15:30;5.70;40.70
21502;DHT22;27639;48.674;9.242;2024-01-16T14:17:56;5.70;40.40
21502;DHT22;27639;48.674;9.242;2024-01-16T14:20:24;5.60;40.60
21502;DHT22;27639;48.674;9.242;2024-01-16T14:22:52;5.60;40.70
21502;DHT22;27639;48.674;9.242;2024-01-16T14:25:18;5.50;40.60
21502;DHT22;27639;48.674;9.242;2024-01-16T14:27:48;5.50;40.80
21502;DHT22;27639;48.674;9.242;2024-01-16T14:30:15;5.50;40.60
21502;DHT22;27639;48.674;9.242;2024-01-16T14:32:42;5.40;40.70
21502;DHT22;27639;48.674;9.242;2024-01-16T14:35:10;5.40;41.50
21502;DHT22;27639;48.674;9.242;2024-01-16T14:37:36;5.40;40.90
21502;DHT22;27639;48.674;9.242;2024-01-16T14:40:03;5.40;40.80
21502;DHT22;27639;48.674;9.242;2024-01-16T14:42:33;5.50;40.80
21502;DHT22;27639;48.674;9.242;2024-01-16T14:44:59;5.50;40.90
21502;DHT22;27639;48.674;9.242;2024-01-16T14:47:25;5.40;40.70
21502;DHT22;27639;48.674;9.242;2024-01-16T14:49:50;5.40;40.80
21502;DHT22;27639;48.674;9.242;2024-01-16T14:52:16;5.30;40.70
21502;DHT22;27639;48.674;9.242;2024-01-16T14:54:43;5.30;40.80
21502;DHT22;27639;48.674;9.242;2024-01-16T14:57:09;5.30;40.70
21502;DHT22;27639;48.674;9.242;2024-01-16T14:59:36;5.40;40.70
21502;DHT22;27639;48.674;9.242;2024-01-16T15:02:02;5.30;40.60
21502;DHT22;27639;48.674;9.242;2024-01-16T15:04:38;5.40;40.70
21502;DHT22;27639;48.674;9.242;2024-01-16T15:07:04;5.40;40.70
21502;DHT22;27639;48.674;9.242;2024-01-16T15:09:30;5.40;40.70
21502;DHT22;27639;48.674;9.242;2024-01-16T15:11:55;5.30;40.70
21502;DHT22;27639;48.674;9.242;2024-01-16T15:14:21;5.40;40.80
21502;DHT22;27639;48.674;9.242;2024-01-16T15:16:47;5.40;40.90
21502;DHT22;27639;48.674;9.242;2024-01-16T15:19:12;5.30;41.00
21502;DHT22;27639;48.674;9.242;2024-01-16T15:21:38;5.20;41.00
21502;DHT22;27639;48.674;9.242;2024-01-16T15:24:04;5.20;41.00
21502;DHT22;27639;48.674;9.242;2024-01-16T15:26:30;5.10;41.20
21502;DHT22;27639;48.674;9.242;2024-01-16T15:28:56;5.00;41.30
21502;DHT22;27639;48.674;9.242;2024-01-16T15:31:22;4.90;41.30
21502;DHT22;27639;48.674;9.242;2024-01-16T15:33:49;4.80;41.30
21502;DHT22;27639;48.674;9.242;2024-01-16T15:36:14;4.70;41.50
21502;DHT22;27639;48.674;9.242;2024-01-16T15:38:40;4.70;41.80
21502;DHT22;27639;48.674;9.242;2024-01-16T15:41:05;4.60;41.90
21502;DHT22;27639;48.674;9.242;2024-01-16T15:43:31;4.60;42.00
21502;DHT22;27639;48.674;9.242;2024-01-16T15:45:56;4.50;42.10
21502;DHT22;27639;48.674;9.242;2024-01-16T15:48:22;4.40;42.30